Time;durP1;ratioP1;P1;durP2;ratioP2;P2;SDS_P1;SDS_P2;PMS_P1;PMS_P2;Temp;Humidity;BMP_temperature;BMP_pressure;BME280_temperature;BME280_humidity;BME280_pressure;Samples;Min_cycle;Max_cycle;Signal;HPM_P1;HPM_P2
2022/12/25 00:00:28;;;;;;;22.10;8.32;;;10.20;97.00;;;;;;5044787;28;20033;-76
2022/12/25 00:02:54;;;;;;;22.75;7.03;;;10.20;97.00;;;;;;5045635;28;20573;-77
2022/12/25 00:05:20;;;;;;;35.45;10.00;;;10.20;96.90;;;;;;5037406;28;20366;-76
2022/12/25 00:07:45;;;;;;;29.75;9.50;;;10.20;96.90;;;;;;5043155;28;20491;-77
2022/12/25 00:10:11;;;;;;;31.05;7.85;;;10.20;96.80;;;;;;5049758;28;20029;-77
2022/12/25 00:12:37;;;;;;;29.27;7.60;;;10.20;96.90;;;;;;5042331;28;20018;-78
2022/12/25 00:15:03;;;;;;;24.08;8.88;;;10.30;96.90;;;;;;5048644;28;20029;-77
2022/12/25 00:17:29;;;;;;;21.30;7.53;;;10.30;96.90;;;;;;5045085;28;20033;-76
2022/12/25 00:19:54;;;;;;;22.10;8.35;;;10.30;96.90;;;;;;5050846;28;20031;-76
2022/12/25 00:22:20;;;;;;;20.30;8.43;;;10.40;96.90;;;;;;5046646;28;20805;-78
2022/12/25 00:24:46;;;;;;;23.73;7.55;;;10.40;96.90;;;;;;5037924;28;20538;-77
2022/12/25 00:27:12;;;;;;;26.35;6.88;;;10.40;96.90;;;;;;5049977;28;20456;-77
2022/12/25 00:29:38;;;;;;;33.28;9.38;;;10.40;96.90;;;;;;5031811;28;20074;-77
2022/12/25 00:32:03;;;;;;;22.50;7.57;;;10.50;96.80;;;;;;5049480;28;20042;-76
2022/12/25 00:34:29;;;;;;;23.70;7.60;;;10.50;96.50;;;;;;5049498;28;20025;-77
2022/12/25 00:36:55;;;;;;;25.63;8.23;;;10.50;96.60;;;;;;5046726;28;20024;-77
2022/12/25 00:39:20;;;;;;;25.88;8.90;;;10.50;96.60;;;;;;5039047;28;20044;-77
2022/12/25 00:44:31;;;;;;;22.35;7.25;;;10.50;96.70;;;;;;5043042;28;20056;-78
2022/12/25 00:46:56;;;;;;;28.60;8.95;;;10.50;96.70;;;;;;5050001;28;20018;-78
2022/12/25 00:49:22;;;;;;;24.15;6.80;;;10.60;96.70;;;;;;5037100;28;20033;-76
2022/12/25 00:51:49;;;;;;;22.60;6.72;;;10.60;96.70;;;;;;5048564;28;20406;-79
2022/12/25 00:54:15;;;;;;;24.67;7.43;;;10.60;96.60;;;;;;5049725;28;20044;-76
2022/12/25 00:56:41;;;;;;;20.75;7.38;;;10.60;96.60;;;;;;5049417;28;20021;-77
2022/12/25 00:59:06;;;;;;;25.75;8.15;;;10.60;96.60;;;;;;5048856;28;20017;-77
2022/12/25 01:01:32;;;;;;;26.15;7.55;;;10.60;96.60;;;;;;5049301;28;20029;-77
2022/12/25 01:03:58;;;;;;;23.25;7.53;;;10.60;96.70;;;;;;5049132;28;20029;-76
2022/12/25 01:06:25;;;;;;;14.10;5.32;;;10.50;96.60;;;;;;5049124;28;20442;-77
2022/12/25 01:11:35;;;;;;;31.02;7.15;;;10.60;96.60;;;;;;5050260;28;20043;-76
2022/12/25 01:14:00;;;;;;;22.23;6.65;;;10.60;96.70;;;;;;5045542;28;20020;-76
2022/12/25 01:16:26;;;;;;;20.65;7.53;;;10.60;96.60;;;;;;5028985;28;20041;-76
2022/12/25 01:18:52;;;;;;;21.58;7.97;;;10.60;96.70;;;;;;5028745;28;20025;-76
2022/12/25 01:21:19;;;;;;;20.20;7.70;;;10.70;96.80;;;;;;5031016;28;20244;-78
2022/12/25 01:23:46;;;;;;;29.38;8.75;;;10.70;96.80;;;;;;5031198;28;20032;-77
2022/12/25 01:26:14;;;;;;;21.02;6.90;;;10.70;96.70;;;;;;5029714;28;20533;-77
2022/12/25 01:28:40;;;;;;;22.50;7.93;;;10.70;96.70;;;;;;5030484;28;20024;-76
2022/12/25 01:31:11;;;;;;;19.27;6.90;;;10.70;96.80;;;;;;5029737;28;20468;-76
2022/12/25 01:33:38;;;;;;;18.55;6.40;;;10.70;96.80;;;;;;5026625;28;20022;-76
2022/12/25 01:36:14;;;;;;;22.73;6.97;;;10.80;96.80;;;;;;5029493;28;20028;-76
2022/12/25 01:38:40;;;;;;;15.40;6.82;;;10.80;96.80;;;;;;5025693;28;20025;-77
2022/12/25 01:41:06;;;;;;;20.92;7.57;;;10.80;96.80;;;;;;5025315;28;20472;-77
2022/12/25 01:43:32;;;;;;;24.08;7.18;;;10.80;96.80;;;;;;5021805;28;20034;-77
2022/12/25 01:45:58;;;;;;;26.05;8.13;;;10.80;96.80;;;;;;5027316;28;20037;-77
2022/12/25 01:48:28;;;;;;;19.23;6.10;;;10.80;96.60;;;;;;5029277;28;20030;-76
2022/12/25 01:51:09;;;;;;;16.40;6.60;;;10.80;96.50;;;;;;5023902;28;20033;-77
2022/12/25 01:53:34;;;;;;;15.50;5.97;;;10.80;96.50;;;;;;5014350;28;20095;-77
2022/12/25 01:56:04;;;;;;;23.60;8.85;;;10.80;96.50;;;;;;5027465;28;20838;-75
2022/12/25 01:58:30;;;;;;;19.65;7.03;;;10.70;96.70;;;;;;5015541;28;20072;-75
2022/12/25 02:00:56;;;;;;;16.60;6.93;;;10.80;96.80;;;;;;5022630;28;20044;-76
2022/12/25 02:03:22;;;;;;;18.60;7.53;;;10.70;96.80;;;;;;5018292;28;20025;-76
2022/12/25 02:05:47;;;;;;;19.00;7.07;;;10.80;96.80;;;;;;5026762;28;20025;-76
2022/12/25 02:08:16;;;;;;;18.83;7.82;;;10.80;96.90;;;;;;5028775;28;20052;-77
2022/12/25 02:10:43;;;;;;;22.88;8.23;;;10.80;96.90;;;;;;5019839;28;20022;-77
2022/12/25 02:13:14;;;;;;;14.93;5.93;;;10.80;96.90;;;;;;5028154;28;20423;-76
2022/12/25 02:16:01;;;;;;;19.92;7.20;;;10.90;97.00;;;;;;5024248;28;20057;-75
2022/12/25 02:18:40;;;;;;;16.33;6.68;;;10.90;96.90;;;;;;5048955;28;20025;-75
2022/12/25 02:21:27;;;;;;;19.33;5.90;;;10.90;96.90;;;;;;5030121;28;20521;-76
2022/12/25 02:23:52;;;;;;;28.45;7.93;;;10.90;96.80;;;;;;5043452;28;20017;-77
2022/12/25 02:27:00;;;;;;;26.23;7.28;;;11.00;96.70;;;;;;5044897;28;20029;-77
2022/12/25 02:30:04;;;;;;;19.75;7.07;;;10.90;96.70;;;;;;4967254;28;20131;-76
2022/12/25 02:34:01;;;;;;;21.50;6.95;;;10.90;96.70;;;;;;5045852;28;20507;-76
2022/12/25 02:35:42;;;;;;;18.02;6.28;;;10.90;96.60;;;;;;5041088;28;20040;-77
2022/12/25 02:38:19;;;;;;;16.92;6.40;;;10.90;96.60;;;;;;5039839;28;20052;-77
2022/12/25 02:40:52;;;;;;;19.40;6.60;;;10.90;96.70;;;;;;5032850;28;20040;-77
2022/12/25 03:08:50;;;;;;;15.20;6.90;;;10.90;96.80;;;;;;5036373;28;20510;-76
2022/12/25 03:11:31;;;;;;;17.05;7.97;;;10.90;96.80;;;;;;5046935;28;20025;-76
2022/12/25 03:16:52;;;;;;;19.33;7.68;;;10.90;96.80;;;;;;5035938;28;20051;-77
2022/12/25 03:27:38;;;;;;;17.52;6.57;;;11.00;96.90;;;;;;5047339;28;20059;-77
2022/12/25 03:33:04;;;;;;;16.30;6.22;;;11.00;96.90;;;;;;5049036;28;20099;-76
2022/12/25 03:36:06;;;;;;;15.20;6.40;;;11.10;96.90;;;;;;5050120;28;20372;-77
2022/12/25 03:45:41;;;;;;;14.10;6.38;;;11.10;96.80;;;;;;5040474;28;20534;-78
2022/12/25 04:37:20;;;;;;;16.23;6.55;;;11.20;96.60;;;;;;5040316;28;20498;-77
2022/12/25 04:39:46;;;;;;;13.50;4.80;;;11.20;96.60;;;;;;5040694;28;20030;-77
2022/12/25 04:42:11;;;;;;;15.60;5.88;;;11.20;96.60;;;;;;5041171;28;20395;-76
2022/12/25 04:44:37;;;;;;;19.77;6.63;;;11.20;96.60;;;;;;5039072;28;20024;-77
2022/12/25 04:47:04;;;;;;;17.50;7.03;;;11.20;96.60;;;;;;5042852;28;20020;-77
2022/12/25 04:49:29;;;;;;;14.45;6.35;;;11.20;96.50;;;;;;5042539;28;20092;-77
2022/12/25 04:51:55;;;;;;;11.45;4.53;;;11.20;96.50;;;;;;5038187;28;20052;-77
2022/12/25 04:54:20;;;;;;;11.45;5.32;;;11.20;96.50;;;;;;5041271;28;20468;-77
2022/12/25 04:56:46;;;;;;;11.95;5.07;;;11.20;96.50;;;;;;5022670;28;20032;-77
2022/12/25 04:59:12;;;;;;;12.43;4.65;;;11.20;96.60;;;;;;5041512;28;20009;-77
2022/12/25 05:01:37;;;;;;;14.27;5.57;;;11.20;96.80;;;;;;5040395;28;20024;-76
2022/12/25 05:04:03;;;;;;;12.38;4.68;;;11.10;96.50;;;;;;5043247;28;20687;-76
2022/12/25 05:06:29;;;;;;;11.98;4.97;;;11.20;96.50;;;;;;5037309;28;20403;-75
2022/12/25 05:08:54;;;;;;;10.93;4.32;;;11.10;96.40;;;;;;5043892;28;20495;-78
2022/12/25 05:11:21;;;;;;;11.15;4.18;;;11.10;96.50;;;;;;5024158;28;20044;-76
2022/12/25 05:13:47;;;;;;;13.68;5.45;;;11.10;96.50;;;;;;5031228;28;20017;-76
2022/12/25 05:16:15;;;;;;;15.43;5.50;;;11.10;96.40;;;;;;5038505;28;20048;-77
2022/12/25 05:18:41;;;;;;;14.75;5.57;;;11.10;96.40;;;;;;5042825;28;20037;-77
2022/12/25 05:21:10;;;;;;;12.55;4.35;;;11.10;96.20;;;;;;5041811;28;20036;-76
2022/12/25 05:23:36;;;;;;;11.88;4.65;;;11.20;96.20;;;;;;5040398;28;20020;-77
2022/12/25 05:26:05;;;;;;;11.52;5.28;;;11.10;96.20;;;;;;5039648;28;20021;-76
2022/12/25 05:28:32;;;;;;;11.68;4.13;;;11.10;96.20;;;;;;5046713;28;20028;-75
2022/12/25 05:30:58;;;;;;;11.10;5.25;;;11.10;96.20;;;;;;5048087;28;20623;-76
2022/12/25 05:33:25;;;;;;;9.60;4.97;;;11.00;96.10;;;;;;5041992;28;20023;-75
2022/12/25 05:35:50;;;;;;;12.52;5.38;;;11.00;96.20;;;;;;5044360;28;20033;-76
2022/12/25 05:38:16;;;;;;;8.90;3.92;;;11.00;96.20;;;;;;5044923;28;20520;-77
2022/12/25 05:40:43;;;;;;;14.15;5.00;;;10.90;96.10;;;;;;5045869;28;20094;-76
2022/12/25 05:43:08;;;;;;;12.20;5.10;;;10.90;96.10;;;;;;5039224;28;20060;-78
2022/12/25 05:45:35;;;;;;;14.23;4.72;;;10.90;96.30;;;;;;5041010;28;20029;-77
2022/12/25 05:48:00;;;;;;;12.13;5.22;;;10.80;96.10;;;;;;5022383;28;20111;-76
2022/12/25 05:50:26;;;;;;;12.43;4.18;;;10.80;96.10;;;;;;5042928;28;20490;-77
2022/12/25 05:52:51;;;;;;;9.60;4.18;;;10.80;96.10;;;;;;5036351;28;20502;-76
2022/12/25 05:55:17;;;;;;;14.27;5.57;;;10.80;96.10;;;;;;5042717;28;20522;-77
2022/12/25 05:57:43;;;;;;;13.85;5.35;;;10.80;96.10;;;;;;5036827;28;20013;-77
2022/12/25 06:00:09;;;;;;;9.90;4.47;;;10.80;96.00;;;;;;5038620;28;20557;-76
2022/12/25 06:02:35;;;;;;;13.60;5.18;;;10.80;96.00;;;;;;5040565;28;20018;-77
2022/12/25 06:05:02;;;;;;;13.82;5.03;;;10.80;96.00;;;;;;5040798;28;20021;-76
2022/12/25 06:07:28;;;;;;;11.35;4.65;;;10.70;95.90;;;;;;5041610;28;20017;-75
2022/12/25 06:09:54;;;;;;;15.27;5.35;;;10.70;95.90;;;;;;5041446;28;20029;-76
2022/12/25 06:12:19;;;;;;;8.27;4.45;;;10.70;95.90;;;;;;5015583;28;20063;-76
2022/12/25 06:14:45;;;;;;;12.02;5.35;;;10.70;95.90;;;;;;5045874;28;20543;-76
2022/12/25 06:17:10;;;;;;;8.65;4.32;;;10.70;95.90;;;;;;5043499;28;20041;-77
2022/12/25 06:19:36;;;;;;;9.18;4.78;;;10.60;95.90;;;;;;5038597;28;20135;-76
2022/12/25 06:22:02;;;;;;;13.70;6.03;;;10.60;95.90;;;;;;5039945;28;20056;-77
2022/12/25 06:24:28;;;;;;;8.88;4.15;;;10.60;95.80;;;;;;5041341;28;20116;-77
2022/12/25 06:26:53;;;;;;;10.02;4.28;;;10.60;95.80;;;;;;5038392;28;20021;-77
2022/12/25 06:29:19;;;;;;;13.80;5.15;;;10.50;95.80;;;;;;5040772;28;20021;-76
2022/12/25 06:31:45;;;;;;;11.75;5.40;;;10.50;95.90;;;;;;5046709;28;20029;-77
2022/12/25 06:34:10;;;;;;;12.80;5.80;;;10.50;96.00;;;;;;5041246;28;20096;-76
2022/12/25 06:36:37;;;;;;;11.73;5.43;;;10.50;96.00;;;;;;5039614;28;20032;-76
2022/12/25 06:39:03;;;;;;;11.10;5.25;;;10.40;96.10;;;;;;5028238;28;20104;-76
2022/12/25 06:41:29;;;;;;;12.80;5.55;;;10.40;96.10;;;;;;5046653;28;20897;-76
2022/12/25 06:43:58;;;;;;;11.18;5.25;;;10.50;96.20;;;;;;5025163;28;20498;-76
2022/12/25 06:46:26;;;;;;;12.07;4.70;;;10.40;96.20;;;;;;5044780;28;20046;-77
2022/12/25 06:48:52;;;;;;;9.98;4.43;;;10.50;96.20;;;;;;5030174;28;20032;-76
2022/12/25 06:51:20;;;;;;;11.57;5.00;;;10.40;96.20;;;;;;5041215;28;20014;-77
2022/12/25 06:53:49;;;;;;;13.80;6.53;;;10.50;96.30;;;;;;5043764;28;20033;-77
2022/12/25 06:56:18;;;;;;;9.02;4.75;;;10.40;96.20;;;;;;5047440;28;20039;-76
2022/12/25 06:58:51;;;;;;;9.77;4.60;;;10.50;96.20;;;;;;5044148;28;20030;-76
2022/12/25 07:01:26;;;;;;;10.27;5.53;;;10.40;96.20;;;;;;5045023;28;20339;-76
2022/12/25 07:03:59;;;;;;;13.10;5.38;;;10.40;96.20;;;;;;5046192;28;20021;-77
2022/12/25 07:06:25;;;;;;;16.35;8.02;;;10.40;96.30;;;;;;5045970;28;20529;-76
2022/12/25 07:08:51;;;;;;;13.68;6.28;;;10.50;96.20;;;;;;5051891;28;20009;-77
2022/12/25 07:11:17;;;;;;;17.35;7.32;;;10.50;96.20;;;;;;5031526;28;20164;-76
2022/12/25 07:13:44;;;;;;;12.30;5.80;;;10.50;96.20;;;;;;5048599;28;20033;-76
2022/12/25 07:16:11;;;;;;;11.38;5.82;;;10.60;96.20;;;;;;5018463;28;20519;-77
2022/12/25 07:18:39;;;;;;;14.48;6.25;;;10.60;96.20;;;;;;5019120;28;20068;-77
2022/12/25 07:21:07;;;;;;;13.68;5.95;;;10.60;96.20;;;;;;5020284;28;20033;-75
2022/12/25 07:23:33;;;;;;;13.65;6.30;;;10.60;96.20;;;;;;5017104;28;20021;-76
2022/12/25 07:26:00;;;;;;;14.60;7.85;;;10.60;96.10;;;;;;5024239;28;20493;-76
2022/12/25 07:28:26;;;;;;;13.65;6.15;;;10.60;96.20;;;;;;5023417;28;20026;-79
2022/12/25 07:30:52;;;;;;;14.20;6.57;;;10.70;96.20;;;;;;5021210;28;20492;-77
2022/12/25 07:33:22;;;;;;;10.13;5.03;;;10.70;96.20;;;;;;5019248;28;20088;-77
2022/12/25 07:35:51;;;;;;;14.85;7.85;;;10.70;96.10;;;;;;5017107;28;20092;-77
2022/12/25 07:38:16;;;;;;;21.52;6.22;;;10.70;96.20;;;;;;5023337;28;20067;-76
2022/12/25 07:40:45;;;;;;;10.05;4.95;;;10.70;96.20;;;;;;5019302;28;20037;-76
2022/12/25 07:43:11;;;;;;;15.35;6.20;;;10.70;96.20;;;;;;5018737;28;20104;-76
2022/12/25 07:45:37;;;;;;;14.05;6.57;;;10.70;96.20;;;;;;5018253;28;20136;-76
2022/12/25 07:48:02;;;;;;;9.90;4.55;;;10.80;96.20;;;;;;5018709;28;20512;-77
2022/12/25 07:50:28;;;;;;;12.70;5.60;;;10.80;96.10;;;;;;5023426;28;20034;-77
2022/12/25 07:52:54;;;;;;;11.73;5.47;;;10.80;96.10;;;;;;5020082;28;20495;-76
2022/12/25 07:55:20;;;;;;;9.93;5.72;;;10.80;96.10;;;;;;5023282;28;20022;-77
2022/12/25 07:57:46;;;;;;;12.23;6.93;;;10.80;96.10;;;;;;5017345;28;20558;-76
2022/12/25 08:00:12;;;;;;;12.38;6.30;;;10.80;96.10;;;;;;5023077;28;20052;-76
2022/12/25 08:02:38;;;;;;;12.27;6.72;;;10.80;96.00;;;;;;5027586;28;20087;-77
2022/12/25 08:05:04;;;;;;;13.02;5.82;;;10.80;96.10;;;;;;5031041;28;20028;-75
2022/12/25 08:07:29;;;;;;;13.32;5.35;;;10.80;96.00;;;;;;5027703;28;20025;-76
2022/12/25 08:09:55;;;;;;;12.15;5.35;;;10.80;96.10;;;;;;5027811;28;20029;-77
2022/12/25 08:12:21;;;;;;;16.02;5.93;;;10.80;96.10;;;;;;5021255;28;20025;-77
2022/12/25 08:14:46;;;;;;;15.48;5.75;;;10.80;96.10;;;;;;5018330;28;20018;-76
2022/12/25 08:17:12;;;;;;;11.52;4.95;;;10.90;96.10;;;;;;5043253;28;20041;-75
2022/12/25 08:19:38;;;;;;;14.93;4.78;;;10.90;96.00;;;;;;5048358;28;20036;-76
2022/12/25 08:22:03;;;;;;;8.35;4.82;;;10.90;95.90;;;;;;5036785;28;20103;-77
2022/12/25 08:24:29;;;;;;;12.40;4.90;;;10.80;95.90;;;;;;5050006;28;20051;-77
2022/12/25 08:26:55;;;;;;;10.60;5.05;;;10.80;96.00;;;;;;5045412;28;20059;-77
2022/12/25 08:29:20;;;;;;;11.50;5.10;;;10.90;96.00;;;;;;5041281;28;20021;-77
2022/12/25 08:31:46;;;;;;;9.90;4.78;;;10.90;96.00;;;;;;5023060;28;20019;-77
2022/12/25 08:34:14;;;;;;;10.60;4.25;;;10.90;95.90;;;;;;5039542;28;20017;-79
2022/12/25 08:36:40;;;;;;;9.55;4.88;;;11.00;95.90;;;;;;5024778;28;20120;-76
2022/12/25 08:39:07;;;;;;;11.57;4.82;;;11.00;95.80;;;;;;5042960;28;20025;-77
2022/12/25 08:41:35;;;;;;;9.95;4.63;;;11.00;95.70;;;;;;5044597;28;20029;-77
2022/12/25 08:44:05;;;;;;;9.38;4.82;;;11.00;95.70;;;;;;5007247;28;20037;-76
2022/12/25 08:46:31;;;;;;;12.50;4.93;;;11.00;95.70;;;;;;5039277;28;20056;-76
2022/12/25 08:48:57;;;;;;;11.55;4.18;;;11.00;95.70;;;;;;5039189;28;20044;-75
2022/12/25 08:51:24;;;;;;;9.32;4.70;;;11.10;95.70;;;;;;5023284;28;20111;-76
2022/12/25 08:53:52;;;;;;;10.10;4.70;;;11.00;95.70;;;;;;5016072;28;20029;-76
2022/12/25 08:56:19;;;;;;;8.55;4.28;;;11.10;95.70;;;;;;5037457;28;20018;-75
2022/12/25 08:58:45;;;;;;;12.05;5.00;;;11.10;95.70;;;;;;5041060;28;20021;-76
2022/12/25 09:01:12;;;;;;;11.55;4.97;;;11.10;95.60;;;;;;5039926;28;20168;-77
2022/12/25 09:03:38;;;;;;;13.70;4.78;;;11.10;95.60;;;;;;5021147;28;20029;-78
2022/12/25 09:06:06;;;;;;;11.18;4.40;;;11.20;95.50;;;;;;5041818;28;20100;-77
2022/12/25 09:08:32;;;;;;;12.60;5.03;;;11.20;95.50;;;;;;5046539;28;20029;-76
2022/12/25 09:11:06;;;;;;;12.70;5.95;;;11.30;95.40;;;;;;5039889;28;20104;-77
2022/12/25 09:13:32;;;;;;;12.57;5.07;;;11.30;95.30;;;;;;5041120;28;20109;-76
2022/12/25 09:15:58;;;;;;;9.57;4.80;;;11.40;95.30;;;;;;5039627;28;20044;-77
2022/12/25 09:18:23;;;;;;;10.68;5.05;;;11.40;95.20;;;;;;5039084;28;20017;-77
2022/12/25 09:21:02;;;;;;;8.25;4.63;;;11.40;95.10;;;;;;5035378;28;20025;-78
2022/12/25 09:23:28;;;;;;;12.85;4.13;;;11.30;95.10;;;;;;5024563;28;20451;-77
2022/12/25 09:26:04;;;;;;;11.05;4.80;;;11.30;95.10;;;;;;5073243;28;20118;-75
2022/12/25 09:28:31;;;;;;;9.02;4.90;;;11.30;95.20;;;;;;5060300;28;20040;-76
2022/12/25 09:30:57;;;;;;;14.10;5.78;;;11.30;95.30;;;;;;5061801;28;20024;-77
2022/12/25 09:33:24;;;;;;;10.18;5.07;;;11.30;95.30;;;;;;5057694;28;20039;-77
2022/12/25 09:35:57;;;;;;;10.10;5.07;;;11.30;95.10;;;;;;5070817;28;20028;-75
2022/12/25 09:38:23;;;;;;;7.90;4.30;;;11.40;95.00;;;;;;5055142;28;20068;-74
2022/12/25 09:41:01;;;;;;;10.32;4.55;;;11.40;95.00;;;;;;5054831;28;20401;-76
2022/12/25 09:43:30;;;;;;;10.23;5.05;;;11.40;94.90;;;;;;5053097;28;20437;-75
2022/12/25 09:45:58;;;;;;;9.30;4.40;;;11.40;95.00;;;;;;5059508;28;20060;-76
2022/12/25 09:48:24;;;;;;;9.52;4.45;;;11.30;95.00;;;;;;5067925;28;20471;-77
2022/12/25 09:51:00;;;;;;;10.32;5.40;;;11.40;95.00;;;;;;5059390;28;20087;-75
2022/12/25 09:53:36;;;;;;;14.25;4.53;;;11.30;95.00;;;;;;5069819;28;20487;-76
2022/12/25 09:56:09;;;;;;;9.20;4.20;;;11.30;95.00;;;;;;5058292;28;20017;-75
2022/12/25 09:58:35;;;;;;;8.82;4.30;;;11.40;95.10;;;;;;5049746;28;20064;-76
2022/12/25 10:01:33;;;;;;;7.95;4.68;;;11.30;95.00;;;;;;5060484;28;20106;-76
2022/12/25 10:04:44;;;;;;;8.30;3.90;;;11.30;95.10;;;;;;5054566;28;20037;-75
2022/12/25 10:07:29;;;;;;;8.93;4.50;;;11.30;95.10;;;;;;5054872;28;20021;-76
2022/12/25 10:10:13;;;;;;;9.02;4.50;;;11.30;95.10;;;;;;5028916;28;20037;-75
2022/12/25 10:12:41;;;;;;;9.32;4.68;;;11.30;95.20;;;;;;5051358;28;20024;-75
2022/12/25 10:15:25;;;;;;;10.43;4.85;;;11.30;95.20;;;;;;5028172;28;20120;-75
2022/12/25 10:17:51;;;;;;;9.00;5.15;;;11.30;95.20;;;;;;5047591;28;20020;-75
2022/12/25 10:20:28;;;;;;;12.32;5.40;;;11.40;95.20;;;;;;5046944;28;20032;-75
2022/12/25 10:22:59;;;;;;;8.07;4.63;;;11.40;95.30;;;;;;5044331;28;20137;-75
2022/12/25 10:25:25;;;;;;;11.95;4.65;;;11.40;95.20;;;;;;5046577;28;20053;-75
2022/12/25 10:27:59;;;;;;;10.40;4.82;;;11.40;95.20;;;;;;5068319;28;20078;-75
2022/12/25 10:30:27;;;;;;;12.32;5.60;;;11.40;95.20;;;;;;5056801;28;20021;-76
2022/12/25 10:32:55;;;;;;;10.93;5.25;;;11.50;95.20;;;;;;5073817;28;20043;-75
2022/12/25 10:35:23;;;;;;;11.82;4.70;;;11.50;95.20;;;;;;5067864;28;20033;-75
2022/12/25 10:37:59;;;;;;;15.95;5.25;;;11.50;95.20;;;;;;5046547;28;20021;-76
2022/12/25 10:40:57;;;;;;;12.40;5.50;;;11.60;95.20;;;;;;5022024;28;20026;-75
2022/12/25 10:43:31;;;;;;;10.02;5.18;;;11.60;95.20;;;;;;5042025;28;20033;-76
2022/12/25 10:45:57;;;;;;;16.30;7.75;;;11.60;95.10;;;;;;5040864;28;20044;-76
2022/12/25 10:48:28;;;;;;;10.55;6.05;;;11.60;95.10;;;;;;5055979;28;20029;-75
2022/12/25 10:50:55;;;;;;;11.73;5.07;;;11.70;95.20;;;;;;5040383;28;20491;-75
2022/12/25 10:53:24;;;;;;;13.10;5.35;;;11.70;95.10;;;;;;5032703;28;20021;-74
2022/12/25 10:55:57;;;;;;;8.95;5.35;;;11.70;95.10;;;;;;5034837;28;20033;-76
2022/12/25 10:58:24;;;;;;;11.40;5.90;;;11.70;95.10;;;;;;5035847;28;20852;-75
2022/12/25 11:01:04;;;;;;;12.60;5.20;;;11.70;95.00;;;;;;5040622;28;20075;-77
2022/12/25 11:03:33;;;;;;;11.65;4.78;;;11.70;95.00;;;;;;5049940;28;20456;-75
2022/12/25 11:06:00;;;;;;;10.00;4.43;;;11.70;95.00;;;;;;5040712;28;20107;-75
2022/12/25 11:08:28;;;;;;;13.60;5.47;;;11.70;95.00;;;;;;5048846;28;20112;-75
2022/12/25 11:11:04;;;;;;;8.68;5.20;;;11.70;95.00;;;;;;5032986;28;20022;-75
2022/12/25 11:13:36;;;;;;;9.77;5.03;;;11.70;95.00;;;;;;5038019;28;20013;-75
2022/12/25 11:16:24;;;;;;;11.15;4.00;;;11.70;95.30;;;;;;5042289;28;20022;-74
2022/12/25 11:18:51;;;;;;;9.23;4.40;;;11.70;95.10;;;;;;5039555;28;20078;-76
2022/12/25 11:21:29;;;;;;;11.07;4.30;;;11.60;95.10;;;;;;5049023;28;20021;-76
2022/12/25 11:24:05;;;;;;;11.02;4.97;;;11.60;95.20;;;;;;5057430;28;20052;-75
2022/12/25 11:26:57;;;;;;;10.75;4.80;;;11.60;95.30;;;;;;5035697;28;20492;-75
2022/12/25 11:29:36;;;;;;;12.43;5.93;;;11.60;95.30;;;;;;5041529;28;20033;-76
2022/12/25 11:32:04;;;;;;;12.48;5.32;;;11.60;95.20;;;;;;5029016;28;20022;-74
2022/12/25 11:34:39;;;;;;;9.15;5.68;;;11.70;95.30;;;;;;5043380;28;20029;-75
2022/12/25 11:37:15;;;;;;;12.00;5.32;;;11.70;95.30;;;;;;5031262;28;20466;-75
2022/12/25 11:39:41;;;;;;;11.95;5.90;;;11.60;95.40;;;;;;5041923;28;20024;-76
2022/12/25 11:42:19;;;;;;;15.90;6.30;;;11.60;95.30;;;;;;5020535;28;20036;-77
2022/12/25 11:44:48;;;;;;;13.85;6.93;;;11.60;95.30;;;;;;5028923;28;20025;-77
2022/12/25 11:47:24;;;;;;;11.10;6.35;;;11.50;95.40;;;;;;5030373;28;20025;-76
2022/12/25 11:49:59;;;;;;;12.00;6.70;;;11.50;95.50;;;;;;5044201;28;20013;-77
2022/12/25 11:52:30;;;;;;;14.77;6.45;;;11.50;95.60;;;;;;5018016;28;20082;-76
2022/12/25 11:55:04;;;;;;;12.20;6.05;;;11.40;95.60;;;;;;5040313;28;20036;-76
2022/12/25 11:57:31;;;;;;;16.88;7.55;;;11.40;95.70;;;;;;5063829;28;20071;-76
2022/12/25 12:00:09;;;;;;;12.93;6.35;;;11.30;95.80;;;;;;5049326;28;20028;-76
2022/12/25 12:02:58;;;;;;;11.55;7.00;;;11.30;96.00;;;;;;5026783;28;20426;-75
2022/12/25 12:05:52;;;;;;;14.80;6.93;;;11.30;96.10;;;;;;5026050;28;20045;-75
2022/12/25 12:08:18;;;;;;;12.25;6.60;;;11.30;96.20;;;;;;5015824;28;20463;-76
2022/12/25 12:11:14;;;;;;;12.60;6.35;;;11.30;96.20;;;;;;5025624;28;20018;-76
2022/12/25 12:13:58;;;;;;;10.13;5.68;;;11.30;96.30;;;;;;5033895;28;20112;-76
2022/12/25 12:16:24;;;;;;;11.95;6.60;;;11.30;96.30;;;;;;5035939;28;20503;-74
2022/12/25 12:18:50;;;;;;;12.80;7.63;;;11.30;96.30;;;;;;5035576;28;20056;-77
2022/12/25 12:21:19;;;;;;;15.02;8.30;;;11.30;96.40;;;;;;5061558;28;20059;-75
2022/12/25 12:24:03;;;;;;;13.77;6.63;;;11.30;96.50;;;;;;5010200;28;20067;-76
2022/12/25 12:26:35;;;;;;;15.95;8.60;;;11.30;96.50;;;;;;5026807;28;20443;-76
2022/12/25 12:29:02;;;;;;;12.13;7.50;;;11.30;96.60;;;;;;5026707;28;20117;-75
2022/12/25 12:31:39;;;;;;;15.98;7.65;;;11.30;96.60;;;;;;5049434;28;20025;-77
2022/12/25 12:34:05;;;;;;;13.27;7.38;;;11.30;96.70;;;;;;5031674;28;20055;-76
2022/12/25 12:36:35;;;;;;;12.65;7.20;;;11.30;96.70;;;;;;5039880;28;20037;-77
2022/12/25 12:39:01;;;;;;;13.27;7.25;;;11.30;96.60;;;;;;5025181;28;20060;-76
2022/12/25 12:41:47;;;;;;;18.48;7.00;;;11.40;96.70;;;;;;5036354;28;20017;-76
2022/12/25 12:44:16;;;;;;;12.10;7.40;;;11.30;96.70;;;;;;5038333;28;20491;-75
2022/12/25 12:46:51;;;;;;;13.20;6.90;;;11.40;96.80;;;;;;5028353;28;20049;-76
2022/12/25 12:49:34;;;;;;;17.55;8.45;;;11.40;96.80;;;;;;5023607;28;20017;-76
2022/12/25 12:52:23;;;;;;;11.77;6.15;;;11.40;96.80;;;;;;5048050;28;20017;-75
2022/12/25 12:55:01;;;;;;;12.57;7.10;;;11.40;96.80;;;;;;5035114;28;20025;-77
2022/12/25 12:57:31;;;;;;;13.48;6.63;;;11.40;96.80;;;;;;5023970;28;20021;-76
2022/12/25 12:59:57;;;;;;;;;;;11.40;96.80;;;;;;5041951;28;20021;-75
2022/12/25 13:02:23;;;;;;;11.05;6.35;;;11.40;96.80;;;;;;5057294;28;19954;-76
2022/12/25 13:05:15;;;;;;;12.50;6.53;;;11.40;96.80;;;;;;5050089;28;20037;-76
2022/12/25 13:08:19;;;;;;;13.38;7.50;;;11.40;96.90;;;;;;5044324;28;20018;-76
2022/12/25 13:11:22;;;;;;;12.27;7.38;;;11.30;97.00;;;;;;5045229;28;20025;-77
2022/12/25 13:13:51;;;;;;;13.48;7.32;;;11.30;97.00;;;;;;5046243;28;20021;-77
2022/12/25 13:16:39;;;;;;;11.90;7.28;;;11.30;97.10;;;;;;5038336;28;20026;-77
2022/12/25 13:19:10;;;;;;;14.38;8.52;;;11.40;97.20;;;;;;5046407;28;20017;-76
2022/12/25 13:21:35;;;;;;;15.38;8.23;;;11.30;97.10;;;;;;5042847;28;20033;-77
2022/12/25 13:24:17;;;;;;;15.70;9.77;;;11.30;97.20;;;;;;5053753;28;20083;-77
2022/12/25 13:26:45;;;;;;;12.50;8.30;;;11.30;97.30;;;;;;5036420;28;20484;-76
2022/12/25 13:29:31;;;;;;;14.73;9.25;;;11.40;97.30;;;;;;5044066;28;20021;-75
2022/12/25 13:32:03;;;;;;;12.63;8.75;;;11.40;97.40;;;;;;5023144;28;20176;-76
2022/12/25 13:34:40;;;;;;;15.65;8.98;;;11.40;97.30;;;;;;5042075;28;20059;-77
2022/12/25 13:37:21;;;;;;;10.85;7.97;;;11.40;97.30;;;;;;5041606;28;20108;-75
2022/12/25 13:39:51;;;;;;;13.48;9.27;;;11.40;97.20;;;;;;5030485;28;20025;-77
2022/12/25 13:42:21;;;;;;;;;;;11.40;97.30;;;;;;5031507;28;20598;-77
2022/12/25 13:45:10;;;;;;;12.70;7.97;;;11.40;97.20;;;;;;5056174;28;19934;-75
2022/12/25 13:47:38;;;;;;;15.65;9.68;;;11.40;97.20;;;;;;5038810;28;20112;-77
2022/12/25 13:50:32;;;;;;;18.55;11.32;;;11.40;97.40;;;;;;5049885;28;20025;-76
2022/12/25 13:53:10;;;;;;;18.10;11.82;;;11.30;97.40;;;;;;5032044;28;20044;-76
2022/12/25 13:55:36;;;;;;;18.52;10.23;;;11.30;97.40;;;;;;5044439;28;20527;-75
2022/12/25 13:58:04;;;;;;;16.00;9.40;;;11.30;97.50;;;;;;5033132;28;20103;-76
2022/12/25 14:00:49;;;;;;;17.85;10.65;;;11.40;97.60;;;;;;5056273;28;20082;-76
2022/12/25 14:03:29;;;;;;;16.00;10.60;;;11.40;97.60;;;;;;5034251;28;20025;-77
2022/12/25 14:06:04;;;;;;;16.25;11.85;;;11.50;97.60;;;;;;5040868;28;20041;-77
2022/12/25 14:08:32;;;;;;;17.33;10.82;;;11.40;97.50;;;;;;5038481;28;20033;-77
2022/12/25 14:11:04;;;;;;;17.85;11.95;;;11.40;97.60;;;;;;5042269;28;20021;-76
2022/12/25 14:13:34;;;;;;;18.10;13.07;;;11.40;97.60;;;;;;5041008;28;20025;-76
2022/12/25 14:16:00;;;;;;;20.52;11.95;;;11.40;97.60;;;;;;5047108;28;20041;-75
2022/12/25 14:18:27;;;;;;;18.40;13.02;;;11.40;97.60;;;;;;5032256;28;20022;-76
2022/12/25 14:21:05;;;;;;;16.73;10.80;;;11.40;97.60;;;;;;5061697;28;20307;-75
2022/12/25 14:23:51;;;;;;;18.52;14.23;;;11.40;97.60;;;;;;5035290;28;20032;-75
2022/12/25 14:26:19;;;;;;;16.65;11.27;;;11.50;97.60;;;;;;5042836;28;20059;-75
2022/12/25 14:29:08;;;;;;;15.65;11.40;;;11.50;97.60;;;;;;5039117;28;20017;-76
2022/12/25 14:31:34;;;;;;;18.08;12.35;;;11.50;97.60;;;;;;5031665;28;20037;-76
2022/12/25 14:34:02;;;;;;;17.75;12.50;;;11.60;97.60;;;;;;5038318;28;20499;-77
2022/12/25 14:36:30;;;;;;;14.95;11.30;;;11.60;97.50;;;;;;5056175;28;20024;-78